sensor_id;sensor_type;location;lat;lon;timestamp;P1;durP1;ratioP1;P2;durP2;ratioP2
15486;SDS011;7845;53.698;10.078;2023-08-17T00:00:44;4.80;;;2.10;;
15486;SDS011;7845;53.698;10.078;2023-08-17T00:03:11;3.97;;;1.90;;
15486;SDS011;7845;53.698;10.078;2023-08-17T00:05:37;4.43;;;2.10;;
15486;SDS011;7845;53.698;10.078;2023-08-17T00:08:02;4.83;;;2.20;;
15486;SDS011;7845;53.698;10.078;2023-08-17T00:10:28;5.67;;;2.57;;
15486;SDS011;7845;53.698;10.078;2023-08-17T00:12:53;5.13;;;2.10;;
15486;SDS011;7845;53.698;10.078;2023-08-17T00:15:22;3.60;;;1.77;;
15486;SDS011;7845;53.698;10.078;2023-08-17T00:17:47;3.67;;;1.80;;
15486;SDS011;7845;53.698;10.078;2023-08-17T00:20:13;3.50;;;1.87;;
15486;SDS011;7845;53.698;10.078;2023-08-17T00:22:38;3.30;;;1.50;;
15486;SDS011;7845;53.698;10.078;2023-08-17T00:25:03;5.13;;;2.27;;
15486;SDS011;7845;53.698;10.078;2023-08-17T00:27:31;5.13;;;2.20;;
15486;SDS011;7845;53.698;10.078;2023-08-17T00:29:59;5.50;;;1.90;;
15486;SDS011;7845;53.698;10.078;2023-08-17T00:32:25;5.30;;;2.30;;
15486;SDS011;7845;53.698;10.078;2023-08-17T00:34:50;4.53;;;2.13;;
15486;SDS011;7845;53.698;10.078;2023-08-17T00:37:16;3.80;;;1.97;;
15486;SDS011;7845;53.698;10.078;2023-08-17T00:39:41;4.70;;;1.97;;
15486;SDS011;7845;53.698;10.078;2023-08-17T00:42:06;4.83;;;2.20;;
15486;SDS011;7845;53.698;10.078;2023-08-17T00:44:33;4.63;;;1.77;;
15486;SDS011;7845;53.698;10.078;2023-08-17T00:47:07;4.47;;;1.70;;
15486;SDS011;7845;53.698;10.078;2023-08-17T00:49:32;4.40;;;1.93;;
15486;SDS011;7845;53.698;10.078;2023-08-17T00:51:59;4.23;;;2.30;;
15486;SDS011;7845;53.698;10.078;2023-08-17T00:54:26;6.03;;;2.07;;
15486;SDS011;7845;53.698;10.078;2023-08-17T00:56:52;4.47;;;1.87;;
15486;SDS011;7845;53.698;10.078;2023-08-17T00:59:19;4.60;;;2.30;;
15486;SDS011;7845;53.698;10.078;2023-08-17T01:01:45;5.53;;;2.00;;
15486;SDS011;7845;53.698;10.078;2023-08-17T01:04:11;5.23;;;2.17;;
15486;SDS011;7845;53.698;10.078;2023-08-17T01:06:36;6.37;;;2.53;;
15486;SDS011;7845;53.698;10.078;2023-08-17T01:09:02;4.73;;;2.20;;
15486;SDS011;7845;53.698;10.078;2023-08-17T01:11:37;4.57;;;2.20;;
15486;SDS011;7845;53.698;10.078;2023-08-17T01:14:11;4.87;;;2.37;;
15486;SDS011;7845;53.698;10.078;2023-08-17T01:16:47;4.53;;;2.63;;
15486;SDS011;7845;53.698;10.078;2023-08-17T01:19:21;4.70;;;2.53;;
15486;SDS011;7845;53.698;10.078;2023-08-17T01:21:50;3.83;;;2.43;;
15486;SDS011;7845;53.698;10.078;2023-08-17T01:24:24;4.37;;;2.00;;
15486;SDS011;7845;53.698;10.078;2023-08-17T01:26:52;5.47;;;2.20;;
15486;SDS011;7845;53.698;10.078;2023-08-17T01:29:17;5.03;;;2.33;;
15486;SDS011;7845;53.698;10.078;2023-08-17T01:31:48;7.17;;;2.57;;
15486;SDS011;7845;53.698;10.078;2023-08-17T01:34:24;4.97;;;2.33;;
15486;SDS011;7845;53.698;10.078;2023-08-17T01:36:53;5.40;;;2.60;;
15486;SDS011;7845;53.698;10.078;2023-08-17T01:39:23;4.50;;;2.77;;
15486;SDS011;7845;53.698;10.078;2023-08-17T01:41:52;8.07;;;3.27;;
15486;SDS011;7845;53.698;10.078;2023-08-17T01:44:21;4.17;;;2.20;;
15486;SDS011;7845;53.698;10.078;2023-08-17T01:46:47;4.83;;;2.30;;
15486;SDS011;7845;53.698;10.078;2023-08-17T01:49:13;4.37;;;2.20;;
15486;SDS011;7845;53.698;10.078;2023-08-17T01:51:38;5.00;;;2.23;;
15486;SDS011;7845;53.698;10.078;2023-08-17T01:54:04;5.10;;;2.43;;
15486;SDS011;7845;53.698;10.078;2023-08-17T01:56:29;5.43;;;2.20;;
15486;SDS011;7845;53.698;10.078;2023-08-17T01:58:54;4.97;;;2.00;;
15486;SDS011;7845;53.698;10.078;2023-08-17T02:01:20;4.27;;;2.80;;
15486;SDS011;7845;53.698;10.078;2023-08-17T02:03:45;5.67;;;2.20;;
15486;SDS011;7845;53.698;10.078;2023-08-17T02:06:10;4.50;;;2.03;;
15486;SDS011;7845;53.698;10.078;2023-08-17T02:08:37;3.43;;;1.70;;
15486;SDS011;7845;53.698;10.078;2023-08-17T02:11:02;4.80;;;2.50;;
15486;SDS011;7845;53.698;10.078;2023-08-17T02:13:28;6.00;;;3.13;;
15486;SDS011;7845;53.698;10.078;2023-08-17T02:15:53;3.50;;;1.90;;
15486;SDS011;7845;53.698;10.078;2023-08-17T02:18:18;5.80;;;2.30;;
15486;SDS011;7845;53.698;10.078;2023-08-17T02:20:44;4.80;;;2.20;;
15486;SDS011;7845;53.698;10.078;2023-08-17T02:23:10;4.70;;;2.20;;
15486;SDS011;7845;53.698;10.078;2023-08-17T02:25:39;4.07;;;2.10;;
15486;SDS011;7845;53.698;10.078;2023-08-17T02:28:06;4.97;;;2.00;;
15486;SDS011;7845;53.698;10.078;2023-08-17T02:30:31;6.57;;;2.23;;
15486;SDS011;7845;53.698;10.078;2023-08-17T02:32:57;5.50;;;2.33;;
15486;SDS011;7845;53.698;10.078;2023-08-17T02:35:23;3.60;;;1.67;;
15486;SDS011;7845;53.698;10.078;2023-08-17T02:37:48;3.83;;;1.97;;
15486;SDS011;7845;53.698;10.078;2023-08-17T02:40:14;5.20;;;2.20;;
15486;SDS011;7845;53.698;10.078;2023-08-17T02:42:39;5.13;;;2.30;;
15486;SDS011;7845;53.698;10.078;2023-08-17T02:45:05;4.87;;;2.07;;
15486;SDS011;7845;53.698;10.078;2023-08-17T02:47:32;5.90;;;2.10;;
15486;SDS011;7845;53.698;10.078;2023-08-17T02:49:57;4.80;;;2.10;;
15486;SDS011;7845;53.698;10.078;2023-08-17T02:52:22;4.77;;;1.90;;
15486;SDS011;7845;53.698;10.078;2023-08-17T02:54:48;4.77;;;1.77;;
15486;SDS011;7845;53.698;10.078;2023-08-17T02:57:13;4.10;;;1.87;;
15486;SDS011;7845;53.698;10.078;2023-08-17T02:59:39;4.40;;;2.50;;
15486;SDS011;7845;53.698;10.078;2023-08-17T03:02:04;4.30;;;2.10;;
15486;SDS011;7845;53.698;10.078;2023-08-17T03:04:29;7.90;;;2.70;;
15486;SDS011;7845;53.698;10.078;2023-08-17T03:06:55;4.53;;;2.00;;
15486;SDS011;7845;53.698;10.078;2023-08-17T03:09:21;4.43;;;1.90;;
15486;SDS011;7845;53.698;10.078;2023-08-17T03:11:48;3.53;;;1.63;;
15486;SDS011;7845;53.698;10.078;2023-08-17T03:14:13;5.33;;;2.07;;
15486;SDS011;7845;53.698;10.078;2023-08-17T03:16:40;4.80;;;2.30;;
15486;SDS011;7845;53.698;10.078;2023-08-17T03:19:05;4.00;;;2.03;;
15486;SDS011;7845;53.698;10.078;2023-08-17T03:21:32;7.37;;;2.00;;
15486;SDS011;7845;53.698;10.078;2023-08-17T03:23:58;4.00;;;2.10;;
15486;SDS011;7845;53.698;10.078;2023-08-17T03:26:23;6.90;;;2.10;;
15486;SDS011;7845;53.698;10.078;2023-08-17T03:28:49;4.20;;;1.90;;
15486;SDS011;7845;53.698;10.078;2023-08-17T03:31:14;4.47;;;2.17;;
15486;SDS011;7845;53.698;10.078;2023-08-17T03:33:41;4.13;;;1.80;;
15486;SDS011;7845;53.698;10.078;2023-08-17T03:36:06;4.67;;;2.27;;
15486;SDS011;7845;53.698;10.078;2023-08-17T03:38:31;3.97;;;1.60;;
15486;SDS011;7845;53.698;10.078;2023-08-17T03:40:57;3.40;;;1.70;;
15486;SDS011;7845;53.698;10.078;2023-08-17T03:43:22;3.53;;;1.77;;
15486;SDS011;7845;53.698;10.078;2023-08-17T03:45:47;5.10;;;1.90;;
15486;SDS011;7845;53.698;10.078;2023-08-17T03:48:13;4.03;;;1.70;;
15486;SDS011;7845;53.698;10.078;2023-08-17T03:50:38;6.80;;;2.07;;
15486;SDS011;7845;53.698;10.078;2023-08-17T03:53:03;7.33;;;1.80;;
15486;SDS011;7845;53.698;10.078;2023-08-17T03:55:30;4.80;;;2.00;;
15486;SDS011;7845;53.698;10.078;2023-08-17T03:57:55;3.73;;;1.50;;
15486;SDS011;7845;53.698;10.078;2023-08-17T04:00:21;4.23;;;2.00;;
15486;SDS011;7845;53.698;10.078;2023-08-17T04:02:46;3.73;;;1.97;;
15486;SDS011;7845;53.698;10.078;2023-08-17T04:05:12;4.40;;;2.00;;
15486;SDS011;7845;53.698;10.078;2023-08-17T04:07:38;5.20;;;1.80;;
15486;SDS011;7845;53.698;10.078;2023-08-17T04:10:07;4.17;;;1.60;;
15486;SDS011;7845;53.698;10.078;2023-08-17T04:12:33;4.20;;;1.77;;
15486;SDS011;7845;53.698;10.078;2023-08-17T04:14:58;3.30;;;1.57;;
15486;SDS011;7845;53.698;10.078;2023-08-17T04:17:24;4.80;;;2.20;;
15486;SDS011;7845;53.698;10.078;2023-08-17T04:19:50;4.37;;;1.80;;
15486;SDS011;7845;53.698;10.078;2023-08-17T04:22:15;4.60;;;1.70;;
15486;SDS011;7845;53.698;10.078;2023-08-17T04:24:40;4.63;;;1.73;;
15486;SDS011;7845;53.698;10.078;2023-08-17T04:27:07;5.00;;;2.07;;
15486;SDS011;7845;53.698;10.078;2023-08-17T04:29:32;4.70;;;2.50;;
15486;SDS011;7845;53.698;10.078;2023-08-17T04:31:58;5.60;;;2.10;;
15486;SDS011;7845;53.698;10.078;2023-08-17T04:34:24;7.30;;;2.33;;
15486;SDS011;7845;53.698;10.078;2023-08-17T04:36:52;6.70;;;2.33;;
15486;SDS011;7845;53.698;10.078;2023-08-17T04:39:18;6.43;;;2.30;;
15486;SDS011;7845;53.698;10.078;2023-08-17T04:41:43;6.37;;;2.57;;
15486;SDS011;7845;53.698;10.078;2023-08-17T04:44:08;4.40;;;1.83;;
15486;SDS011;7845;53.698;10.078;2023-08-17T04:46:34;4.97;;;2.30;;
15486;SDS011;7845;53.698;10.078;2023-08-17T04:49:01;4.10;;;1.90;;
15486;SDS011;7845;53.698;10.078;2023-08-17T04:51:30;5.00;;;2.03;;
15486;SDS011;7845;53.698;10.078;2023-08-17T04:53:55;4.73;;;1.70;;
15486;SDS011;7845;53.698;10.078;2023-08-17T04:56:20;4.33;;;1.70;;
15486;SDS011;7845;53.698;10.078;2023-08-17T04:58:46;4.63;;;2.10;;
15486;SDS011;7845;53.698;10.078;2023-08-17T05:01:11;4.23;;;1.90;;
15486;SDS011;7845;53.698;10.078;2023-08-17T05:03:36;3.93;;;1.97;;
15486;SDS011;7845;53.698;10.078;2023-08-17T05:06:02;5.43;;;1.93;;
15486;SDS011;7845;53.698;10.078;2023-08-17T05:08:28;5.33;;;2.00;;
15486;SDS011;7845;53.698;10.078;2023-08-17T05:10:55;4.13;;;1.90;;
15486;SDS011;7845;53.698;10.078;2023-08-17T05:13:20;4.87;;;1.90;;
15486;SDS011;7845;53.698;10.078;2023-08-17T05:15:45;6.83;;;1.80;;
15486;SDS011;7845;53.698;10.078;2023-08-17T05:18:11;4.67;;;1.70;;
15486;SDS011;7845;53.698;10.078;2023-08-17T05:20:36;3.87;;;1.53;;
15486;SDS011;7845;53.698;10.078;2023-08-17T05:23:01;3.50;;;1.40;;
15486;SDS011;7845;53.698;10.078;2023-08-17T05:25:27;5.07;;;1.50;;
15486;SDS011;7845;53.698;10.078;2023-08-17T05:27:54;3.40;;;1.60;;
15486;SDS011;7845;53.698;10.078;2023-08-17T05:30:20;4.10;;;1.33;;
15486;SDS011;7845;53.698;10.078;2023-08-17T05:32:45;3.13;;;1.30;;
15486;SDS011;7845;53.698;10.078;2023-08-17T05:35:11;4.10;;;1.60;;
15486;SDS011;7845;53.698;10.078;2023-08-17T05:37:36;4.33;;;1.80;;
15486;SDS011;7845;53.698;10.078;2023-08-17T05:40:02;3.40;;;1.47;;
15486;SDS011;7845;53.698;10.078;2023-08-17T05:42:29;3.40;;;1.30;;
15486;SDS011;7845;53.698;10.078;2023-08-17T05:44:56;4.40;;;1.43;;
15486;SDS011;7845;53.698;10.078;2023-08-17T05:47:21;4.20;;;1.40;;
15486;SDS011;7845;53.698;10.078;2023-08-17T05:49:47;3.50;;;1.63;;
15486;SDS011;7845;53.698;10.078;2023-08-17T05:52:13;3.80;;;1.50;;
15486;SDS011;7845;53.698;10.078;2023-08-17T05:54:39;3.30;;;1.17;;
15486;SDS011;7845;53.698;10.078;2023-08-17T05:57:04;4.03;;;1.63;;
15486;SDS011;7845;53.698;10.078;2023-08-17T05:59:30;3.53;;;1.40;;
15486;SDS011;7845;53.698;10.078;2023-08-17T06:01:55;4.60;;;1.80;;
15486;SDS011;7845;53.698;10.078;2023-08-17T06:04:20;5.47;;;2.07;;
15486;SDS011;7845;53.698;10.078;2023-08-17T06:06:45;4.03;;;1.73;;
15486;SDS011;7845;53.698;10.078;2023-08-17T06:09:11;4.80;;;1.80;;
15486;SDS011;7845;53.698;10.078;2023-08-17T06:11:36;4.50;;;2.00;;
15486;SDS011;7845;53.698;10.078;2023-08-17T06:14:02;5.17;;;2.00;;
15486;SDS011;7845;53.698;10.078;2023-08-17T06:16:27;4.80;;;1.93;;
15486;SDS011;7845;53.698;10.078;2023-08-17T06:18:52;5.80;;;2.07;;
15486;SDS011;7845;53.698;10.078;2023-08-17T06:21:18;6.47;;;2.50;;
15486;SDS011;7845;53.698;10.078;2023-08-17T06:23:43;5.70;;;2.17;;
15486;SDS011;7845;53.698;10.078;2023-08-17T06:26:09;6.03;;;2.27;;
15486;SDS011;7845;53.698;10.078;2023-08-17T06:28:34;5.50;;;2.17;;
15486;SDS011;7845;53.698;10.078;2023-08-17T06:30:59;3.60;;;2.00;;
15486;SDS011;7845;53.698;10.078;2023-08-17T06:33:26;4.33;;;2.20;;
15486;SDS011;7845;53.698;10.078;2023-08-17T06:35:51;4.33;;;1.87;;
15486;SDS011;7845;53.698;10.078;2023-08-17T06:38:17;4.40;;;2.10;;
15486;SDS011;7845;53.698;10.078;2023-08-17T06:40:42;6.27;;;2.60;;
15486;SDS011;7845;53.698;10.078;2023-08-17T06:43:08;3.80;;;2.20;;
15486;SDS011;7845;53.698;10.078;2023-08-17T06:45:34;5.20;;;2.30;;
15486;SDS011;7845;53.698;10.078;2023-08-17T06:48:01;4.43;;;2.27;;
15486;SDS011;7845;53.698;10.078;2023-08-17T06:50:26;6.43;;;3.10;;
15486;SDS011;7845;53.698;10.078;2023-08-17T06:52:53;4.97;;;2.40;;
15486;SDS011;7845;53.698;10.078;2023-08-17T06:55:19;5.13;;;2.87;;
15486;SDS011;7845;53.698;10.078;2023-08-17T06:57:44;3.60;;;1.93;;
15486;SDS011;7845;53.698;10.078;2023-08-17T07:00:10;5.00;;;2.47;;
15486;SDS011;7845;53.698;10.078;2023-08-17T07:02:37;4.40;;;2.40;;
15486;SDS011;7845;53.698;10.078;2023-08-17T07:05:02;4.10;;;2.20;;
15486;SDS011;7845;53.698;10.078;2023-08-17T07:07:29;4.73;;;2.03;;
15486;SDS011;7845;53.698;10.078;2023-08-17T07:09:57;5.43;;;2.60;;
15486;SDS011;7845;53.698;10.078;2023-08-17T07:12:23;5.50;;;2.63;;
15486;SDS011;7845;53.698;10.078;2023-08-17T07:14:53;5.00;;;2.73;;
15486;SDS011;7845;53.698;10.078;2023-08-17T07:17:18;5.97;;;3.23;;
15486;SDS011;7845;53.698;10.078;2023-08-17T07:19:44;5.53;;;3.00;;
15486;SDS011;7845;53.698;10.078;2023-08-17T07:22:09;6.63;;;3.20;;
15486;SDS011;7845;53.698;10.078;2023-08-17T07:24:34;6.27;;;3.10;;
15486;SDS011;7845;53.698;10.078;2023-08-17T07:27:00;5.33;;;2.67;;
15486;SDS011;7845;53.698;10.078;2023-08-17T07:29:25;5.20;;;3.67;;
15486;SDS011;7845;53.698;10.078;2023-08-17T07:31:50;8.80;;;3.37;;
15486;SDS011;7845;53.698;10.078;2023-08-17T07:34:16;7.63;;;3.83;;
15486;SDS011;7845;53.698;10.078;2023-08-17T07:36:41;5.60;;;3.60;;
15486;SDS011;7845;53.698;10.078;2023-08-17T07:39:06;4.70;;;2.83;;
15486;SDS011;7845;53.698;10.078;2023-08-17T07:41:33;4.83;;;2.80;;
15486;SDS011;7845;53.698;10.078;2023-08-17T07:43:58;5.23;;;3.00;;
15486;SDS011;7845;53.698;10.078;2023-08-17T07:46:24;5.30;;;3.07;;
15486;SDS011;7845;53.698;10.078;2023-08-17T07:48:49;6.27;;;3.40;;
15486;SDS011;7845;53.698;10.078;2023-08-17T07:51:15;5.27;;;3.20;;
15486;SDS011;7845;53.698;10.078;2023-08-17T07:53:40;7.13;;;3.47;;
15486;SDS011;7845;53.698;10.078;2023-08-17T07:56:05;7.27;;;4.90;;
15486;SDS011;7845;53.698;10.078;2023-08-17T07:58:31;5.30;;;3.33;;
15486;SDS011;7845;53.698;10.078;2023-08-17T08:00:56;5.43;;;3.70;;
15486;SDS011;7845;53.698;10.078;2023-08-17T08:03:21;4.27;;;2.90;;
15486;SDS011;7845;53.698;10.078;2023-08-17T08:05:47;4.40;;;2.77;;
15486;SDS011;7845;53.698;10.078;2023-08-17T08:08:12;7.00;;;2.33;;
15486;SDS011;7845;53.698;10.078;2023-08-17T08:10:39;6.33;;;3.13;;
15486;SDS011;7845;53.698;10.078;2023-08-17T08:13:05;4.73;;;3.13;;
15486;SDS011;7845;53.698;10.078;2023-08-17T08:15:30;4.70;;;3.00;;
15486;SDS011;7845;53.698;10.078;2023-08-17T08:17:56;5.90;;;3.70;;
15486;SDS011;7845;53.698;10.078;2023-08-17T08:20:21;4.20;;;2.63;;
15486;SDS011;7845;53.698;10.078;2023-08-17T08:22:46;5.30;;;2.60;;
15486;SDS011;7845;53.698;10.078;2023-08-17T08:25:12;6.10;;;3.17;;
15486;SDS011;7845;53.698;10.078;2023-08-17T08:27:39;5.17;;;3.00;;
15486;SDS011;7845;53.698;10.078;2023-08-17T08:30:04;5.30;;;3.47;;
15486;SDS011;7845;53.698;10.078;2023-08-17T08:32:31;5.50;;;3.50;;
15486;SDS011;7845;53.698;10.078;2023-08-17T08:34:56;5.97;;;3.20;;
15486;SDS011;7845;53.698;10.078;2023-08-17T08:37:22;4.40;;;2.80;;
15486;SDS011;7845;53.698;10.078;2023-08-17T08:39:50;5.77;;;3.40;;
15486;SDS011;7845;53.698;10.078;2023-08-17T08:42:18;5.03;;;2.67;;
15486;SDS011;7845;53.698;10.078;2023-08-17T08:44:44;5.27;;;3.50;;
15486;SDS011;7845;53.698;10.078;2023-08-17T08:47:10;5.10;;;3.30;;
15486;SDS011;7845;53.698;10.078;2023-08-17T08:49:40;4.10;;;2.60;;
15486;SDS011;7845;53.698;10.078;2023-08-17T08:52:10;8.00;;;3.20;;
15486;SDS011;7845;53.698;10.078;2023-08-17T08:54:39;5.77;;;4.00;;
15486;SDS011;7845;53.698;10.078;2023-08-17T08:57:11;5.03;;;2.97;;
15486;SDS011;7845;53.698;10.078;2023-08-17T08:59:39;4.60;;;2.30;;
15486;SDS011;7845;53.698;10.078;2023-08-17T09:02:11;4.57;;;2.63;;
15486;SDS011;7845;53.698;10.078;2023-08-17T09:04:38;4.00;;;2.33;;
15486;SDS011;7845;53.698;10.078;2023-08-17T09:07:04;4.60;;;2.40;;
15486;SDS011;7845;53.698;10.078;2023-08-17T09:09:30;4.80;;;3.10;;
15486;SDS011;7845;53.698;10.078;2023-08-17T09:11:56;4.80;;;2.60;;
15486;SDS011;7845;53.698;10.078;2023-08-17T09:14:21;4.23;;;3.07;;
15486;SDS011;7845;53.698;10.078;2023-08-17T09:16:47;5.27;;;3.27;;
15486;SDS011;7845;53.698;10.078;2023-08-17T09:19:12;5.17;;;3.00;;
15486;SDS011;7845;53.698;10.078;2023-08-17T09:21:38;4.37;;;2.67;;
15486;SDS011;7845;53.698;10.078;2023-08-17T09:24:03;4.50;;;2.53;;
15486;SDS011;7845;53.698;10.078;2023-08-17T09:26:31;4.50;;;2.80;;
15486;SDS011;7845;53.698;10.078;2023-08-17T09:28:59;4.10;;;2.53;;
15486;SDS011;7845;53.698;10.078;2023-08-17T09:31:25;4.97;;;2.90;;
15486;SDS011;7845;53.698;10.078;2023-08-17T09:33:50;4.67;;;2.87;;
15486;SDS011;7845;53.698;10.078;2023-08-17T09:36:22;4.57;;;2.80;;
15486;SDS011;7845;53.698;10.078;2023-08-17T09:38:52;4.93;;;2.93;;
15486;SDS011;7845;53.698;10.078;2023-08-17T09:41:18;5.53;;;2.63;;
15486;SDS011;7845;53.698;10.078;2023-08-17T09:43:44;4.27;;;2.20;;
15486;SDS011;7845;53.698;10.078;2023-08-17T09:46:14;3.57;;;1.63;;
15486;SDS011;7845;53.698;10.078;2023-08-17T09:48:40;4.13;;;1.60;;
15486;SDS011;7845;53.698;10.078;2023-08-17T09:51:08;4.37;;;1.70;;
15486;SDS011;7845;53.698;10.078;2023-08-17T09:53:34;3.40;;;1.60;;
15486;SDS011;7845;53.698;10.078;2023-08-17T09:56:04;3.50;;;2.00;;
15486;SDS011;7845;53.698;10.078;2023-08-17T09:58:32;4.07;;;1.70;;
15486;SDS011;7845;53.698;10.078;2023-08-17T10:00:58;4.13;;;1.63;;
15486;SDS011;7845;53.698;10.078;2023-08-17T10:03:28;3.60;;;1.30;;
15486;SDS011;7845;53.698;10.078;2023-08-17T10:06:01;3.10;;;1.40;;
15486;SDS011;7845;53.698;10.078;2023-08-17T10:08:31;3.60;;;1.40;;
15486;SDS011;7845;53.698;10.078;2023-08-17T10:11:04;3.73;;;1.60;;
15486;SDS011;7845;53.698;10.078;2023-08-17T10:13:35;3.17;;;1.50;;
15486;SDS011;7845;53.698;10.078;2023-08-17T10:18:44;3.53;;;1.47;;
15486;SDS011;7845;53.698;10.078;2023-08-17T10:21:21;2.90;;;1.10;;
15486;SDS011;7845;53.698;10.078;2023-08-17T10:23:51;4.27;;;2.00;;
15486;SDS011;7845;53.698;10.078;2023-08-17T10:26:17;3.60;;;2.27;;
15486;SDS011;7845;53.698;10.078;2023-08-17T10:28:44;4.40;;;1.80;;
15486;SDS011;7845;53.698;10.078;2023-08-17T10:31:11;4.13;;;2.23;;
15486;SDS011;7845;53.698;10.078;2023-08-17T10:33:38;3.30;;;1.77;;
15486;SDS011;7845;53.698;10.078;2023-08-17T10:36:06;4.83;;;2.27;;
15486;SDS011;7845;53.698;10.078;2023-08-17T10:38:33;4.00;;;2.00;;
15486;SDS011;7845;53.698;10.078;2023-08-17T10:41:11;4.10;;;2.30;;
15486;SDS011;7845;53.698;10.078;2023-08-17T10:43:57;4.07;;;2.00;;
15486;SDS011;7845;53.698;10.078;2023-08-17T10:46:33;3.60;;;1.90;;
15486;SDS011;7845;53.698;10.078;2023-08-17T10:49:06;4.40;;;1.97;;
15486;SDS011;7845;53.698;10.078;2023-08-17T10:52:08;4.23;;;1.90;;
15486;SDS011;7845;53.698;10.078;2023-08-17T10:54:38;3.70;;;2.20;;
15486;SDS011;7845;53.698;10.078;2023-08-17T10:57:25;4.47;;;2.20;;
15486;SDS011;7845;53.698;10.078;2023-08-17T11:02:59;4.53;;;2.47;;
15486;SDS011;7845;53.698;10.078;2023-08-17T11:05:35;4.00;;;2.20;;
15486;SDS011;7845;53.698;10.078;2023-08-17T11:08:07;3.70;;;2.40;;
15486;SDS011;7845;53.698;10.078;2023-08-17T11:10:39;4.00;;;2.40;;
15486;SDS011;7845;53.698;10.078;2023-08-17T11:13:04;4.67;;;2.57;;
15486;SDS011;7845;53.698;10.078;2023-08-17T11:15:42;3.90;;;2.37;;
15486;SDS011;7845;53.698;10.078;2023-08-17T11:18:10;3.73;;;2.17;;
15486;SDS011;7845;53.698;10.078;2023-08-17T11:20:36;5.40;;;2.87;;
15486;SDS011;7845;53.698;10.078;2023-08-17T11:23:05;4.47;;;2.50;;
15486;SDS011;7845;53.698;10.078;2023-08-17T11:25:31;3.80;;;1.90;;
15486;SDS011;7845;53.698;10.078;2023-08-17T11:27:59;4.60;;;2.40;;
15486;SDS011;7845;53.698;10.078;2023-08-17T11:30:25;4.70;;;2.47;;
15486;SDS011;7845;53.698;10.078;2023-08-17T11:32:51;4.13;;;2.30;;
15486;SDS011;7845;53.698;10.078;2023-08-17T11:35:18;3.93;;;2.57;;
15486;SDS011;7845;53.698;10.078;2023-08-17T11:37:46;4.67;;;2.53;;
15486;SDS011;7845;53.698;10.078;2023-08-17T11:40:13;5.63;;;3.20;;
15486;SDS011;7845;53.698;10.078;2023-08-17T11:42:39;4.63;;;2.87;;
15486;SDS011;7845;53.698;10.078;2023-08-17T11:45:04;4.43;;;2.90;;
15486;SDS011;7845;53.698;10.078;2023-08-17T11:47:33;4.87;;;2.37;;
15486;SDS011;7845;53.698;10.078;2023-08-17T11:49:59;3.60;;;2.37;;
15486;SDS011;7845;53.698;10.078;2023-08-17T11:52:25;4.20;;;2.53;;
15486;SDS011;7845;53.698;10.078;2023-08-17T11:55:01;5.00;;;2.33;;
15486;SDS011;7845;53.698;10.078;2023-08-17T11:57:31;5.53;;;2.60;;
15486;SDS011;7845;53.698;10.078;2023-08-17T12:00:00;3.90;;;2.20;;
15486;SDS011;7845;53.698;10.078;2023-08-17T12:02:26;4.73;;;2.27;;
15486;SDS011;7845;53.698;10.078;2023-08-17T12:04:52;4.23;;;2.37;;
15486;SDS011;7845;53.698;10.078;2023-08-17T12:07:19;4.03;;;1.93;;
15486;SDS011;7845;53.698;10.078;2023-08-17T12:09:45;4.60;;;2.20;;
15486;SDS011;7845;53.698;10.078;2023-08-17T12:12:11;3.60;;;2.10;;
15486;SDS011;7845;53.698;10.078;2023-08-17T12:14:36;4.20;;;2.50;;
15486;SDS011;7845;53.698;10.078;2023-08-17T12:17:05;3.20;;;1.60;;
15486;SDS011;7845;53.698;10.078;2023-08-17T12:19:31;4.53;;;1.60;;
15486;SDS011;7845;53.698;10.078;2023-08-17T12:21:56;3.80;;;1.70;;
15486;SDS011;7845;53.698;10.078;2023-08-17T12:24:25;4.10;;;1.60;;
15486;SDS011;7845;53.698;10.078;2023-08-17T12:26:51;3.90;;;1.80;;
15486;SDS011;7845;53.698;10.078;2023-08-17T12:29:16;3.57;;;1.93;;
15486;SDS011;7845;53.698;10.078;2023-08-17T12:31:41;3.60;;;1.70;;
15486;SDS011;7845;53.698;10.078;2023-08-17T12:34:07;4.23;;;2.17;;
15486;SDS011;7845;53.698;10.078;2023-08-17T12:36:35;4.57;;;2.17;;
15486;SDS011;7845;53.698;10.078;2023-08-17T12:39:02;3.67;;;2.00;;
15486;SDS011;7845;53.698;10.078;2023-08-17T12:41:28;3.90;;;2.10;;
15486;SDS011;7845;53.698;10.078;2023-08-17T12:43:54;6.83;;;2.97;;
15486;SDS011;7845;53.698;10.078;2023-08-17T12:46:24;4.60;;;2.53;;
15486;SDS011;7845;53.698;10.078;2023-08-17T12:48:49;3.90;;;2.57;;
15486;SDS011;7845;53.698;10.078;2023-08-17T12:51:16;5.60;;;3.17;;
15486;SDS011;7845;53.698;10.078;2023-08-17T12:53:43;4.13;;;2.50;;
15486;SDS011;7845;53.698;10.078;2023-08-17T12:56:08;3.67;;;2.13;;
15486;SDS011;7845;53.698;10.078;2023-08-17T12:58:34;4.20;;;2.60;;
15486;SDS011;7845;53.698;10.078;2023-08-17T13:00:59;4.27;;;2.63;;
15486;SDS011;7845;53.698;10.078;2023-08-17T13:03:24;4.07;;;2.50;;
15486;SDS011;7845;53.698;10.078;2023-08-17T13:05:50;4.70;;;2.87;;
15486;SDS011;7845;53.698;10.078;2023-08-17T13:08:15;6.60;;;2.70;;
15486;SDS011;7845;53.698;10.078;2023-08-17T13:10:40;6.37;;;3.40;;
15486;SDS011;7845;53.698;10.078;2023-08-17T13:13:06;6.17;;;2.30;;
15486;SDS011;7845;53.698;10.078;2023-08-17T13:15:32;4.73;;;2.50;;
15486;SDS011;7845;53.698;10.078;2023-08-17T13:17:58;4.67;;;2.40;;
15486;SDS011;7845;53.698;10.078;2023-08-17T13:20:24;3.73;;;2.13;;
15486;SDS011;7845;53.698;10.078;2023-08-17T13:22:49;4.00;;;2.37;;
15486;SDS011;7845;53.698;10.078;2023-08-17T13:25:15;4.33;;;2.80;;
15486;SDS011;7845;53.698;10.078;2023-08-17T13:27:40;4.30;;;2.47;;
15486;SDS011;7845;53.698;10.078;2023-08-17T13:30:05;4.40;;;2.20;;
15486;SDS011;7845;53.698;10.078;2023-08-17T13:32:33;3.87;;;2.00;;
15486;SDS011;7845;53.698;10.078;2023-08-17T13:34:58;3.50;;;1.60;;
15486;SDS011;7845;53.698;10.078;2023-08-17T13:37:24;3.57;;;1.60;;
15486;SDS011;7845;53.698;10.078;2023-08-17T13:39:52;3.67;;;1.77;;
15486;SDS011;7845;53.698;10.078;2023-08-17T13:42:19;3.20;;;1.50;;
15486;SDS011;7845;53.698;10.078;2023-08-17T13:44:45;3.60;;;1.43;;
15486;SDS011;7845;53.698;10.078;2023-08-17T13:47:12;4.87;;;1.70;;
15486;SDS011;7845;53.698;10.078;2023-08-17T13:49:38;4.53;;;1.50;;
15486;SDS011;7845;53.698;10.078;2023-08-17T13:52:04;4.30;;;1.60;;
15486;SDS011;7845;53.698;10.078;2023-08-17T13:54:30;3.70;;;1.50;;
15486;SDS011;7845;53.698;10.078;2023-08-17T13:56:55;3.67;;;1.57;;
15486;SDS011;7845;53.698;10.078;2023-08-17T13:59:21;3.43;;;1.47;;
15486;SDS011;7845;53.698;10.078;2023-08-17T14:01:46;4.90;;;1.40;;
15486;SDS011;7845;53.698;10.078;2023-08-17T14:04:11;4.70;;;1.40;;
15486;SDS011;7845;53.698;10.078;2023-08-17T14:06:37;3.20;;;1.50;;
15486;SDS011;7845;53.698;10.078;2023-08-17T14:09:03;3.50;;;1.33;;
15486;SDS011;7845;53.698;10.078;2023-08-17T14:11:29;3.07;;;1.20;;
15486;SDS011;7845;53.698;10.078;2023-08-17T14:13:54;2.90;;;0.97;;
15486;SDS011;7845;53.698;10.078;2023-08-17T14:16:20;3.57;;;1.50;;
15486;SDS011;7845;53.698;10.078;2023-08-17T14:18:45;3.57;;;1.43;;
15486;SDS011;7845;53.698;10.078;2023-08-17T14:21:10;3.30;;;1.40;;
15486;SDS011;7845;53.698;10.078;2023-08-17T14:23:38;3.30;;;1.37;;
15486;SDS011;7845;53.698;10.078;2023-08-17T14:26:04;3.87;;;1.50;;
15486;SDS011;7845;53.698;10.078;2023-08-17T14:28:31;3.30;;;1.40;;
15486;SDS011;7845;53.698;10.078;2023-08-17T14:30:56;3.37;;;1.43;;
15486;SDS011;7845;53.698;10.078;2023-08-17T14:33:21;3.03;;;1.27;;
15486;SDS011;7845;53.698;10.078;2023-08-17T14:35:47;5.23;;;1.67;;
15486;SDS011;7845;53.698;10.078;2023-08-17T14:38:14;4.07;;;1.50;;
15486;SDS011;7845;53.698;10.078;2023-08-17T14:40:42;3.83;;;1.83;;
15486;SDS011;7845;53.698;10.078;2023-08-17T14:43:10;3.00;;;1.20;;
15486;SDS011;7845;53.698;10.078;2023-08-17T14:45:39;3.40;;;2.00;;
15486;SDS011;7845;53.698;10.078;2023-08-17T14:48:05;3.60;;;1.27;;
15486;SDS011;7845;53.698;10.078;2023-08-17T14:50:32;3.03;;;1.20;;